Weather at Aeropuerto "General Tomas de Heres". Ciudad Bolivar

Public forecast

Using degrees Celsius for public forecast. Weather courtesy of forecast.io.

Current aviation weather report (METAR) for Aeropuerto "General Tomas de Heres". Ciudad Bolivar

Report is more than 6 hours old.

2022/11/14 15:03 (retrieved 2 years ago)

SVCB 141503Z AUTO 12007KT NCD 30/20 Q1012

Closest aviation forecast (TAF) to Aeropuerto "General Tomas de Heres". Ciudad Bolivar

Forecast is more than 12 hours old.

Closest forecast is General José Antonio Anzoategui International Airport, 137.7 nm (254.9 km) NNW.

2023/02/22 18:11 (retrieved 1 year ago)

TAF SVBC 221600Z 2218/2318 08005KT 9999 FEW010 TX33/1918Z TN23/2007Z BECMG 2219/2223 07001KT SCT010 FM200000 08004KT 9999 FEW010